首页
METAR-TAF:

METAR-TAF

机场 :

Moosonee, 安大略省, 加拿大

纬度: 51-16N, 经度: 080-39W, 海拔: 10米

当前天气观测

该预报发布于27分钟前的01:00 UTC
风速8节,风向
温度 6°C
湿度 65%
气压 1019 hPa
能見度: 14.5公里
散云层高于8500英尺

METAR: CYMO 010100Z AUTO 10008KT 9SM SCT085 06/00 A3010 RMK SLP194

时间: 21:27 (01:27 UTC)

预报

该预报发布于1小时和57分钟前的23:30 UTC
预报有效从01日的 00点(UTC)到 01日的 12点(UTC)
风速8节,风向
能見度: 10公里
少量云层高于2000英尺
散云层高于7000英尺
短暂存在
从 01日的 00点(UTC)到 01日的 06点(UTC)
能見度: 10公里
多云层高于2000英尺
小阵雨
从 01日的 0600点(UTC)
风速5节,风向南转西南
能見度: 1.6公里
阴天层高于400英尺
小毛毛雨, 轻雾
从 01日的 1000点(UTC)
风速8节,风向西北
能見度: 9.7公里
阴天层高于800英尺
轻雾

TAF: CYMO 312330Z 0100/0112 08008KT P6SM FEW020 SCT070 TEMPO 0100/0106 P6SM -SHRA BKN020 FM010600 21005KT 1SM -DZ BR OVC004 FM011000 32008KT 6SM BR OVC008 RMK FCST BASED ON AUTO OBS. NXT FCST BY 010600Z

超过4000个机场的气象观测和天气预报(METAR&TAF报告)。

可查询的气象台以黄色和红色小点在地图上表示。

将鼠标移到小点上方,可查看气象台名称。

然后点击查看天气观测和预报。

如需切换地图:点击带黑十字的绿色按钮放大地图;点击带横线的绿色按钮缩小地图;或者点击绿色箭头查看邻近地区的地图。


METAR-TAF: